createdAt,value
2022-11-30T00:00:02.623Z,3.45
2022-11-30T00:02:30.161Z,4.13
2022-11-30T00:04:56.633Z,2.75
2022-11-30T00:07:23.212Z,4.78
2022-11-30T00:09:49.680Z,4.72
2022-11-30T00:12:16.147Z,6.80
2022-11-30T00:14:42.626Z,3.92
2022-11-30T00:17:09.127Z,6.78
2022-11-30T00:19:35.635Z,7.00
2022-11-30T00:22:02.089Z,5.30
2022-11-30T00:24:28.521Z,6.38
2022-11-30T00:26:55.001Z,5.68
2022-11-30T00:29:21.432Z,6.78
2022-11-30T00:31:47.886Z,4.85
2022-11-30T00:34:14.514Z,3.72
2022-11-30T00:36:40.992Z,2.45
2022-11-30T00:39:07.558Z,4.18
2022-11-30T00:41:34.044Z,3.67
2022-11-30T00:44:00.708Z,4.88
2022-11-30T00:46:27.371Z,3.08
2022-11-30T00:48:53.971Z,1.80
2022-11-30T00:51:20.549Z,3.92
2022-11-30T00:53:47.903Z,8.63
2022-11-30T00:56:14.639Z,6.32
2022-11-30T00:58:41.212Z,6.63
2022-11-30T01:01:08.240Z,3.05
2022-11-30T01:03:34.947Z,5.45
2022-11-30T01:06:02.686Z,4.80
2022-11-30T01:08:29.345Z,5.65
2022-11-30T01:10:57.882Z,7.35
2022-11-30T01:13:24.514Z,6.30
2022-11-30T01:15:51.045Z,8.18
2022-11-30T01:18:17.789Z,6.95
2022-11-30T01:20:44.385Z,4.78
2022-11-30T01:23:11.288Z,10.57
2022-11-30T01:25:37.946Z,6.88
2022-11-30T01:28:04.612Z,5.65
2022-11-30T01:30:31.377Z,3.30
2022-11-30T01:33:01.714Z,6.15
2022-11-30T01:35:28.325Z,3.92
2022-11-30T01:37:54.778Z,6.90
2022-11-30T01:40:21.252Z,3.83
2022-11-30T01:42:48.058Z,4.28
2022-11-30T01:45:15.072Z,7.30
2022-11-30T01:47:43.925Z,10.25
2022-11-30T01:50:14.660Z,8.88
2022-11-30T01:52:43.204Z,3.88
2022-11-30T01:55:19.078Z,5.28
2022-11-30T01:57:49.120Z,6.00
2022-11-30T02:00:16.174Z,6.13
2022-11-30T02:02:48.834Z,5.93
2022-11-30T02:05:16.566Z,5.68
2022-11-30T02:07:43.252Z,6.70
2022-11-30T02:10:14.062Z,5.43
2022-11-30T02:12:49.867Z,7.10
2022-11-30T02:15:20.379Z,3.90
2022-11-30T02:18:07.083Z,5.03
2022-11-30T02:20:49.741Z,8.70
2022-11-30T02:23:19.357Z,4.05
2022-11-30T02:26:05.399Z,3.47
2022-11-30T02:28:50.736Z,4.72
2022-11-30T02:31:20.425Z,4.38
2022-11-30T02:33:47.817Z,5.03
2022-11-30T02:36:14.430Z,5.45
2022-11-30T02:38:41.606Z,4.07
2022-11-30T02:41:08.085Z,5.38
2022-11-30T02:43:35.398Z,5.88
2022-11-30T02:46:11.034Z,4.07
2022-11-30T02:48:50.540Z,7.75
2022-11-30T02:51:21.582Z,6.75
2022-11-30T02:53:48.336Z,3.67
2022-11-30T02:56:14.868Z,4.75
2022-11-30T02:58:41.509Z,4.85
2022-11-30T03:01:08.285Z,9.85
2022-11-30T03:03:34.794Z,5.10
2022-11-30T03:06:01.274Z,3.58
2022-11-30T03:08:27.809Z,8.35
2022-11-30T03:10:54.277Z,6.80
2022-11-30T03:13:20.738Z,6.78
2022-11-30T03:15:47.994Z,5.93
2022-11-30T03:18:14.774Z,7.35
2022-11-30T03:20:44.301Z,4.63
2022-11-30T03:23:10.792Z,7.03
2022-11-30T03:25:37.297Z,7.72
2022-11-30T03:28:04.314Z,8.02
2022-11-30T03:30:30.807Z,7.50
2022-11-30T03:32:57.286Z,4.57
2022-11-30T03:35:24.641Z,4.07
2022-11-30T03:37:51.115Z,5.47
2022-11-30T03:40:17.613Z,7.53
2022-11-30T03:42:44.156Z,5.60
2022-11-30T03:45:10.875Z,4.10
2022-11-30T03:47:37.531Z,4.40
2022-11-30T03:50:04.080Z,7.18
2022-11-30T03:52:30.557Z,6.07
2022-11-30T03:54:58.576Z,4.57
2022-11-30T03:57:25.056Z,7.65
2022-11-30T03:59:51.510Z,5.40
2022-11-30T04:02:18.047Z,7.07
2022-11-30T04:04:44.768Z,7.68
2022-11-30T04:07:11.469Z,7.35
2022-11-30T04:09:37.939Z,5.72
2022-11-30T04:12:04.487Z,11.20
2022-11-30T04:14:30.966Z,8.70
2022-11-30T04:16:57.462Z,5.80
2022-11-30T04:19:23.951Z,6.38
2022-11-30T04:21:51.583Z,5.88
2022-11-30T04:24:18.022Z,10.38
2022-11-30T04:26:46.077Z,7.50
2022-11-30T04:29:12.562Z,5.07
2022-11-30T04:31:39.044Z,5.07
2022-11-30T04:34:05.497Z,4.53
2022-11-30T04:36:32.030Z,6.88
2022-11-30T04:38:58.480Z,6.93
2022-11-30T04:41:24.938Z,7.78
2022-11-30T04:43:51.441Z,5.93
2022-11-30T04:46:17.976Z,7.20
2022-11-30T04:48:44.468Z,6.18
2022-11-30T04:51:10.963Z,5.95
2022-11-30T04:53:37.912Z,6.57
2022-11-30T04:56:08.788Z,7.40
2022-11-30T04:58:35.744Z,8.43
2022-11-30T05:01:02.243Z,6.13
2022-11-30T05:03:28.728Z,7.45
2022-11-30T05:05:55.231Z,4.13
2022-11-30T05:08:21.796Z,7.13
2022-11-30T05:10:53.278Z,7.38
2022-11-30T05:13:20.088Z,11.02
2022-11-30T05:15:47.096Z,7.10
2022-11-30T05:18:15.857Z,8.05
2022-11-30T05:20:46.445Z,9.38
2022-11-30T05:23:12.926Z,6.95
2022-11-30T05:25:39.400Z,6.15
2022-11-30T05:28:05.935Z,9.75
2022-11-30T05:30:32.390Z,6.03
2022-11-30T05:32:58.874Z,8.45
2022-11-30T05:35:25.414Z,12.15
2022-11-30T05:37:51.863Z,9.57
2022-11-30T05:40:18.512Z,7.93
2022-11-30T05:42:44.957Z,8.75
2022-11-30T05:45:11.658Z,12.63
2022-11-30T05:47:38.128Z,7.70
2022-11-30T05:50:05.024Z,6.40
2022-11-30T05:52:31.661Z,14.40
2022-11-30T05:54:59.511Z,9.40
2022-11-30T05:57:26.056Z,5.95
2022-11-30T05:59:52.599Z,8.10
2022-11-30T06:02:23.712Z,9.25
2022-11-30T06:04:53.117Z,12.20
2022-11-30T06:07:19.639Z,17.00
2022-11-30T06:09:46.163Z,10.98
2022-11-30T06:12:12.634Z,13.18
2022-11-30T06:14:39.120Z,10.70
2022-11-30T06:17:05.639Z,8.38
2022-11-30T06:19:32.239Z,7.60
2022-11-30T06:21:58.716Z,8.80
2022-11-30T06:24:25.210Z,9.80
2022-11-30T06:26:51.709Z,10.93
2022-11-30T06:29:18.182Z,6.53
2022-11-30T06:31:44.694Z,5.53
2022-11-30T06:34:11.227Z,5.82
2022-11-30T06:36:37.892Z,8.90
2022-11-30T06:39:04.631Z,8.32
2022-11-30T06:41:31.069Z,8.10
2022-11-30T06:43:57.555Z,9.30
2022-11-30T06:46:24.180Z,10.70
2022-11-30T06:48:50.971Z,10.93
2022-11-30T06:51:17.770Z,6.55
2022-11-30T06:53:44.986Z,8.38
2022-11-30T06:56:11.846Z,8.52
2022-11-30T06:58:39.618Z,7.10
2022-11-30T07:01:07.047Z,6.30
2022-11-30T07:03:33.729Z,10.02
2022-11-30T07:06:00.422Z,6.35
2022-11-30T07:08:26.873Z,9.63
2022-11-30T07:10:53.328Z,6.55
2022-11-30T07:13:19.914Z,8.65
2022-11-30T07:15:46.349Z,6.45
2022-11-30T07:18:12.869Z,10.23
2022-11-30T07:20:39.690Z,8.88
2022-11-30T07:23:24.795Z,6.32
2022-11-30T07:26:07.067Z,10.70
2022-11-30T07:28:34.474Z,10.15
2022-11-30T07:31:00.938Z,9.82
2022-11-30T07:33:27.525Z,5.65
2022-11-30T07:35:54.647Z,7.70
2022-11-30T07:38:21.123Z,10.98
2022-11-30T07:40:47.616Z,15.13
2022-11-30T07:43:14.052Z,8.07
2022-11-30T07:45:40.605Z,11.32
2022-11-30T07:48:07.115Z,10.52
2022-11-30T07:50:33.563Z,9.45
2022-11-30T07:53:00.033Z,8.50
2022-11-30T07:55:26.487Z,10.52
2022-11-30T07:57:53.178Z,8.60
2022-11-30T08:00:19.628Z,6.45
2022-11-30T08:02:49.737Z,8.95
2022-11-30T08:05:16.448Z,6.03
2022-11-30T08:07:43.014Z,9.15
2022-11-30T08:10:09.769Z,8.65
2022-11-30T08:12:36.259Z,5.40
2022-11-30T08:15:20.415Z,9.88
2022-11-30T08:17:50.283Z,7.97
2022-11-30T08:20:16.888Z,7.15
2022-11-30T08:22:43.455Z,4.93
2022-11-30T08:25:09.971Z,9.68
2022-11-30T08:27:36.459Z,7.38
2022-11-30T08:30:03.029Z,16.63
2022-11-30T08:32:29.502Z,8.48
2022-11-30T08:34:56.006Z,10.70
2022-11-30T08:37:22.457Z,9.38
2022-11-30T08:39:48.918Z,6.32
2022-11-30T08:42:15.450Z,12.68
2022-11-30T08:44:41.908Z,13.60
2022-11-30T08:47:08.567Z,9.13
2022-11-30T08:49:35.077Z,10.00
2022-11-30T08:52:18.194Z,10.25
2022-11-30T08:54:46.622Z,7.35
2022-11-30T08:57:14.090Z,6.95
2022-11-30T08:59:40.530Z,5.82
2022-11-30T09:02:07.148Z,11.93
2022-11-30T09:04:33.680Z,7.57
2022-11-30T09:07:01.076Z,8.95
2022-11-30T09:09:27.671Z,9.55
2022-11-30T09:11:54.136Z,7.68
2022-11-30T09:14:20.598Z,13.48
2022-11-30T09:16:47.084Z,10.52
2022-11-30T09:19:13.566Z,11.10
2022-11-30T09:21:40.166Z,8.10
2022-11-30T09:24:06.729Z,9.18
2022-11-30T09:26:33.202Z,10.48
2022-11-30T09:29:00.108Z,7.07
2022-11-30T09:31:27.251Z,9.77
2022-11-30T09:33:55.893Z,7.72
2022-11-30T09:36:22.954Z,8.88
2022-11-30T09:38:49.702Z,9.27
2022-11-30T09:41:22.225Z,8.70
2022-11-30T09:44:08.845Z,11.65
2022-11-30T09:46:41.881Z,10.48
2022-11-30T09:49:27.072Z,11.85
2022-11-30T09:51:55.270Z,8.20
2022-11-30T09:54:31.247Z,9.93
2022-11-30T09:56:57.746Z,12.75
2022-11-30T09:59:32.651Z,13.38
2022-11-30T10:02:07.006Z,7.93
2022-11-30T10:04:33.582Z,7.95
2022-11-30T10:07:12.374Z,8.60
2022-11-30T10:10:30.268Z,10.70
2022-11-30T10:13:08.510Z,11.80
2022-11-30T10:15:44.442Z,9.10
2022-11-30T10:18:23.234Z,12.57
2022-11-30T10:21:02.740Z,11.57
2022-11-30T10:23:35.304Z,11.25
2022-11-30T10:26:01.713Z,9.35
2022-11-30T10:28:52.378Z,9.48
2022-11-30T10:31:28.630Z,13.43
2022-11-30T10:33:58.960Z,13.35
2022-11-30T10:36:33.439Z,15.93
2022-11-30T10:39:01.812Z,16.30
2022-11-30T10:41:37.738Z,13.93
2022-11-30T10:44:10.253Z,11.30
2022-11-30T10:46:38.645Z,7.88
2022-11-30T10:49:08.037Z,15.35
2022-11-30T10:51:37.107Z,12.27
2022-11-30T10:54:12.353Z,8.80
2022-11-30T10:56:38.999Z,19.73
2022-11-30T10:59:17.160Z,13.18
2022-11-30T11:01:44.198Z,10.80
2022-11-30T11:04:16.799Z,14.30
2022-11-30T11:06:47.588Z,17.48
2022-11-30T11:09:45.887Z,11.45
2022-11-30T11:12:15.644Z,13.10
2022-11-30T11:14:42.206Z,15.52
2022-11-30T11:17:17.534Z,16.27
2022-11-30T11:19:44.513Z,14.18
2022-11-30T11:22:10.995Z,13.63
2022-11-30T11:24:37.457Z,12.10
2022-11-30T11:27:04.194Z,11.38
2022-11-30T11:29:32.203Z,24.15
2022-11-30T11:32:19.207Z,14.68
2022-11-30T11:34:50.805Z,14.52
2022-11-30T11:37:20.831Z,13.40
2022-11-30T11:40:05.735Z,14.02
2022-11-30T11:42:35.265Z,14.45
2022-11-30T11:45:02.636Z,10.55
2022-11-30T11:47:32.621Z,16.73
2022-11-30T11:50:06.670Z,13.77
2022-11-30T11:52:33.117Z,15.80
2022-11-30T11:55:02.758Z,18.05
2022-11-30T11:57:45.128Z,13.90
2022-11-30T12:00:16.161Z,12.73
2022-11-30T12:03:04.928Z,17.33
2022-11-30T12:05:33.654Z,15.75
2022-11-30T12:08:05.661Z,15.07
2022-11-30T12:10:54.292Z,15.77
2022-11-30T12:13:22.432Z,12.18
2022-11-30T12:16:21.510Z,14.40
2022-11-30T12:19:06.665Z,13.15
2022-11-30T12:21:39.187Z,12.57
2022-11-30T12:24:14.682Z,13.10
2022-11-30T12:26:44.598Z,12.40
2022-11-30T12:29:23.438Z,21.65
2022-11-30T12:32:05.811Z,19.85
2022-11-30T12:34:38.438Z,11.35
2022-11-30T12:37:10.734Z,11.95
2022-11-30T12:39:46.682Z,11.50
2022-11-30T12:42:32.287Z,15.05
2022-11-30T12:45:17.558Z,15.68
2022-11-30T12:47:50.161Z,13.18
2022-11-30T12:50:25.878Z,13.50
2022-11-30T12:53:07.609Z,11.02
2022-11-30T12:55:40.221Z,11.88
2022-11-30T12:58:12.975Z,16.05
2022-11-30T13:00:45.707Z,11.32
2022-11-30T13:03:42.716Z,15.43
2022-11-30T13:06:12.076Z,17.33
2022-11-30T13:08:44.969Z,15.98
2022-11-30T13:11:13.763Z,16.00
2022-11-30T13:13:45.887Z,12.48
2022-11-30T13:16:12.498Z,14.32
2022-11-30T13:18:39.286Z,14.77
2022-11-30T13:21:11.847Z,15.32
2022-11-30T13:23:57.029Z,16.00
2022-11-30T13:26:26.524Z,25.48
2022-11-30T13:28:58.029Z,9.93
2022-11-30T13:31:47.672Z,9.80
2022-11-30T13:34:27.957Z,12.82
2022-11-30T13:37:02.482Z,11.18
2022-11-30T13:39:30.381Z,11.23
2022-11-30T13:42:02.905Z,12.85
2022-11-30T13:44:33.782Z,11.43
2022-11-30T13:47:01.769Z,10.18
2022-11-30T13:49:30.040Z,11.40
2022-11-30T13:52:21.648Z,15.38
2022-11-30T13:54:47.796Z,11.10
2022-11-30T13:57:17.827Z,17.17
2022-11-30T13:59:47.433Z,14.15
2022-11-30T14:02:44.488Z,14.10
2022-11-30T14:05:17.081Z,15.20
2022-11-30T14:08:06.685Z,16.70
2022-11-30T14:10:33.358Z,16.05
2022-11-30T14:13:01.203Z,19.65
2022-11-30T14:15:50.496Z,24.33
2022-11-30T14:18:19.871Z,16.98
2022-11-30T14:20:46.360Z,20.58
2022-11-30T14:23:18.868Z,20.98
2022-11-30T14:25:51.116Z,16.98
2022-11-30T14:28:19.272Z,12.90
2022-11-30T14:30:46.433Z,18.83
2022-11-30T14:33:25.127Z,21.58
2022-11-30T14:35:55.606Z,20.27
2022-11-30T14:38:28.023Z,21.95
2022-11-30T14:40:54.653Z,22.52
2022-11-30T14:43:21.373Z,16.77
2022-11-30T14:46:07.226Z,17.60
2022-11-30T14:48:36.728Z,24.45
2022-11-30T14:51:06.082Z,18.92
2022-11-30T14:53:35.613Z,17.30
2022-11-30T14:56:12.282Z,18.70
2022-11-30T14:58:51.181Z,21.15
2022-11-30T15:01:19.685Z,20.48
2022-11-30T15:03:47.807Z,19.20
2022-11-30T15:06:15.186Z,20.25
2022-11-30T15:08:42.827Z,18.30
2022-11-30T15:11:10.781Z,20.20
2022-11-30T15:13:47.589Z,13.27
2022-11-30T15:16:18.730Z,17.80
2022-11-30T15:18:45.221Z,16.30
2022-11-30T15:21:30.697Z,23.75
2022-11-30T15:23:58.275Z,20.00
2022-11-30T15:26:57.171Z,18.35
2022-11-30T15:29:23.615Z,18.17
2022-11-30T15:31:51.423Z,13.90
2022-11-30T15:34:19.287Z,16.58
2022-11-30T15:36:46.329Z,14.93
2022-11-30T15:39:21.010Z,22.30
2022-11-30T15:41:52.744Z,15.50
2022-11-30T15:44:37.625Z,24.15
2022-11-30T15:47:05.745Z,17.58
2022-11-30T15:49:32.942Z,21.25
2022-11-30T15:52:15.875Z,19.15
2022-11-30T15:54:58.943Z,19.05
2022-11-30T15:57:26.498Z,17.27
2022-11-30T16:00:19.063Z,17.67
2022-11-30T16:02:45.601Z,14.57
2022-11-30T16:05:14.445Z,14.88
2022-11-30T16:07:52.788Z,14.43
2022-11-30T16:10:28.196Z,15.32
2022-11-30T16:12:55.423Z,14.20
2022-11-30T16:15:23.909Z,15.02
2022-11-30T16:17:51.077Z,17.90
2022-11-30T16:20:17.577Z,21.90
2022-11-30T16:22:44.948Z,15.15
2022-11-30T16:25:13.062Z,16.85
2022-11-30T16:27:39.525Z,21.75
2022-11-30T16:30:06.269Z,18.90
2022-11-30T16:32:32.705Z,15.43
2022-11-30T16:34:59.214Z,12.98
2022-11-30T16:37:25.637Z,11.77
2022-11-30T16:39:52.119Z,13.35
2022-11-30T16:42:18.599Z,14.15
2022-11-30T16:44:45.037Z,18.40
2022-11-30T16:47:11.490Z,14.70
2022-11-30T16:49:37.963Z,13.95
2022-11-30T16:52:04.492Z,19.33
2022-11-30T16:54:31.053Z,16.65
2022-11-30T16:56:57.557Z,16.05
2022-11-30T16:59:24.014Z,18.63
2022-11-30T17:01:53.025Z,19.55
2022-11-30T17:04:20.573Z,19.52
2022-11-30T17:06:50.635Z,15.68
2022-11-30T17:09:17.968Z,15.90
2022-11-30T17:11:45.571Z,16.85
2022-11-30T17:14:12.649Z,16.88
2022-11-30T17:16:39.211Z,18.60
2022-11-30T17:19:05.734Z,19.17
2022-11-30T17:21:33.846Z,17.55
2022-11-30T17:24:00.753Z,16.33
2022-11-30T17:26:27.769Z,17.83
2022-11-30T17:28:54.293Z,17.60
2022-11-30T17:31:21.127Z,20.50
2022-11-30T17:33:48.485Z,17.75
2022-11-30T17:36:15.954Z,20.35
2022-11-30T17:38:44.277Z,20.45
2022-11-30T17:41:18.594Z,20.38
2022-11-30T17:43:45.967Z,17.15
2022-11-30T17:46:15.754Z,18.40
2022-11-30T17:48:42.744Z,16.42
2022-11-30T17:51:09.951Z,16.23
2022-11-30T17:53:40.024Z,18.33
2022-11-30T17:56:10.836Z,20.98
2022-11-30T17:58:42.962Z,16.48
2022-11-30T18:01:30.798Z,16.60
2022-11-30T18:03:58.108Z,15.30
2022-11-30T18:06:24.807Z,15.13
2022-11-30T18:08:51.361Z,14.48
2022-11-30T18:11:22.121Z,15.40
2022-11-30T18:13:50.097Z,18.70
2022-11-30T18:16:18.357Z,15.25
2022-11-30T18:18:48.030Z,22.45
2022-11-30T18:21:15.919Z,15.40
2022-11-30T18:23:42.391Z,17.05
2022-11-30T18:26:11.602Z,20.33
2022-11-30T18:28:38.111Z,25.23
2022-11-30T18:31:06.628Z,14.93
2022-11-30T18:33:33.696Z,20.70
2022-11-30T18:36:01.070Z,16.55
2022-11-30T18:38:29.695Z,15.88
2022-11-30T18:40:59.306Z,17.63
2022-11-30T18:43:25.886Z,15.85
2022-11-30T18:45:52.395Z,19.35
2022-11-30T18:48:18.933Z,18.00
2022-11-30T18:50:45.382Z,15.23
2022-11-30T18:53:16.666Z,18.60
2022-11-30T18:55:44.781Z,15.13
2022-11-30T18:58:11.240Z,18.55
2022-11-30T19:00:37.754Z,21.38
2022-11-30T19:03:04.273Z,21.02
2022-11-30T19:05:34.992Z,18.20
2022-11-30T19:08:03.958Z,18.25
2022-11-30T19:10:34.529Z,17.67
2022-11-30T19:13:01.745Z,28.17
2022-11-30T19:15:28.190Z,53.38
2022-11-30T19:17:54.982Z,130.95
2022-11-30T19:20:21.974Z,108.30
2022-11-30T19:22:48.554Z,44.63
2022-11-30T19:25:18.969Z,31.00
2022-11-30T19:27:45.779Z,35.40
2022-11-30T19:30:12.486Z,25.75
2022-11-30T19:32:38.970Z,25.10
2022-11-30T19:35:05.682Z,31.25
2022-11-30T19:37:32.142Z,24.60
2022-11-30T19:39:58.581Z,20.65
2022-11-30T19:42:25.072Z,19.20
2022-11-30T19:44:51.536Z,19.20
2022-11-30T19:47:18.063Z,18.85
2022-11-30T19:49:45.776Z,16.98
2022-11-30T19:52:12.260Z,23.48
2022-11-30T19:54:38.736Z,21.48
2022-11-30T19:57:05.201Z,16.25
2022-11-30T19:59:31.647Z,17.58
2022-11-30T20:01:58.205Z,14.45
2022-11-30T20:04:24.745Z,18.48
2022-11-30T20:06:51.250Z,20.40
2022-11-30T20:09:17.734Z,20.73
2022-11-30T20:11:44.226Z,18.60
2022-11-30T20:14:17.121Z,20.63
2022-11-30T20:16:43.626Z,18.43
2022-11-30T20:19:10.970Z,19.00
2022-11-30T20:21:37.439Z,16.30
2022-11-30T20:24:06.226Z,21.15
2022-11-30T20:26:33.956Z,22.08
2022-11-30T20:29:01.265Z,17.70
2022-11-30T20:31:28.696Z,16.60
2022-11-30T20:33:55.234Z,15.15
2022-11-30T20:36:21.878Z,138.98
2022-11-30T20:38:48.698Z,40.25
2022-11-30T20:41:19.645Z,27.42
2022-11-30T20:43:46.534Z,20.35
2022-11-30T20:46:29.473Z,19.55
2022-11-30T20:48:56.572Z,16.85
2022-11-30T20:51:32.500Z,17.95
2022-11-30T20:54:01.150Z,14.85
2022-11-30T20:56:27.727Z,15.27
2022-11-30T20:58:54.274Z,14.48
2022-11-30T21:01:21.660Z,10.85
2022-11-30T21:03:48.474Z,11.85
2022-11-30T21:06:15.391Z,14.07
2022-11-30T21:08:41.941Z,14.25
2022-11-30T21:11:11.263Z,13.75
2022-11-30T21:13:38.309Z,14.57
2022-11-30T21:16:07.205Z,12.50
2022-11-30T21:18:34.585Z,14.65
2022-11-30T21:21:02.857Z,12.98
2022-11-30T21:23:29.433Z,12.32
2022-11-30T21:25:56.023Z,10.13
2022-11-30T21:28:22.558Z,12.27
2022-11-30T21:30:49.062Z,12.02
2022-11-30T21:33:15.585Z,12.20
2022-11-30T21:35:42.054Z,10.50
2022-11-30T21:38:08.599Z,10.93
2022-11-30T21:40:35.147Z,12.25
2022-11-30T21:43:01.647Z,11.02
2022-11-30T21:45:28.431Z,12.57
2022-11-30T21:47:55.034Z,13.30
2022-11-30T21:50:26.898Z,10.63
2022-11-30T21:52:53.774Z,11.57
2022-11-30T21:55:20.256Z,7.85
2022-11-30T21:57:46.732Z,9.57
2022-11-30T22:00:14.486Z,10.13
2022-11-30T22:02:41.129Z,9.15
2022-11-30T22:05:07.834Z,9.27
2022-11-30T22:07:34.407Z,7.93
2022-11-30T22:10:00.869Z,11.70
2022-11-30T22:12:27.402Z,12.38
2022-11-30T22:14:53.881Z,8.77
2022-11-30T22:17:20.447Z,7.78
2022-11-30T22:19:47.391Z,9.07
2022-11-30T22:22:14.320Z,8.07
2022-11-30T22:24:40.801Z,9.15
2022-11-30T22:27:07.294Z,8.82
2022-11-30T22:29:33.752Z,8.57
2022-11-30T22:32:00.278Z,8.65
2022-11-30T22:34:26.895Z,8.73
2022-11-30T22:36:53.391Z,7.72
2022-11-30T22:39:20.975Z,5.70
2022-11-30T22:41:54.224Z,8.77
2022-11-30T22:44:21.998Z,7.30
2022-11-30T22:46:48.551Z,6.95
2022-11-30T22:49:20.689Z,12.25
2022-11-30T22:51:48.506Z,5.57
2022-11-30T22:54:15.032Z,8.77
2022-11-30T22:56:41.715Z,6.50
2022-11-30T22:59:10.358Z,8.82
2022-11-30T23:01:39.043Z,7.63
2022-11-30T23:04:13.214Z,6.63
2022-11-30T23:06:40.411Z,8.73
2022-11-30T23:09:08.711Z,6.25
2022-11-30T23:11:35.276Z,8.82
2022-11-30T23:14:05.464Z,7.10
2022-11-30T23:16:32.175Z,6.05
2022-11-30T23:19:00.443Z,6.63
2022-11-30T23:21:30.134Z,7.07
2022-11-30T23:23:58.442Z,5.22
2022-11-30T23:26:26.436Z,4.18
2022-11-30T23:28:53.769Z,6.07
2022-11-30T23:31:34.145Z,4.32
2022-11-30T23:34:02.915Z,6.03
2022-11-30T23:36:29.453Z,4.40
2022-11-30T23:39:00.189Z,6.18
2022-11-30T23:41:27.018Z,4.10
2022-11-30T23:43:53.614Z,5.03
2022-11-30T23:46:20.132Z,6.90
2022-11-30T23:48:46.750Z,2.67
2022-11-30T23:51:13.240Z,4.97
2022-11-30T23:53:39.770Z,10.80
2022-11-30T23:56:07.760Z,4.28
2022-11-30T23:58:34.474Z,7.57
